sensor_id;sensor_type;location;lat;lon;timestamp;pressure;altitude;pressure_sealevel;temperature;humidity
79577;BME280;69045;48.136;11.386;2023-07-31T00:01:06;95496.09;;;20.83;56.17
79577;BME280;69045;48.136;11.386;2023-07-31T00:03:34;95494.00;;;20.80;55.86
79577;BME280;69045;48.136;11.386;2023-07-31T00:06:04;95491.06;;;20.77;56.35
79577;BME280;69045;48.136;11.386;2023-07-31T00:08:32;95487.66;;;20.71;56.50
79577;BME280;69045;48.136;11.386;2023-07-31T00:11:00;95497.28;;;20.67;56.63
79577;BME280;69045;48.136;11.386;2023-07-31T00:13:28;95497.00;;;20.63;56.92
79577;BME280;69045;48.136;11.386;2023-07-31T00:15:58;95492.25;;;20.60;56.75
79577;BME280;69045;48.136;11.386;2023-07-31T00:18:26;95491.19;;;20.61;56.88
79577;BME280;69045;48.136;11.386;2023-07-31T00:20:54;95488.78;;;20.60;56.97
79577;BME280;69045;48.136;11.386;2023-07-31T00:23:22;95484.53;;;20.59;57.12
79577;BME280;69045;48.136;11.386;2023-07-31T00:25:50;95480.25;;;20.63;57.16
79577;BME280;69045;48.136;11.386;2023-07-31T00:28:18;95477.59;;;20.63;57.35
79577;BME280;69045;48.136;11.386;2023-07-31T00:30:46;95479.44;;;20.62;57.13
79577;BME280;69045;48.136;11.386;2023-07-31T00:33:16;95479.19;;;20.59;57.06
79577;BME280;69045;48.136;11.386;2023-07-31T00:35:44;95480.53;;;20.61;56.77
79577;BME280;69045;48.136;11.386;2023-07-31T00:38:12;95472.53;;;20.61;57.20
79577;BME280;69045;48.136;11.386;2023-07-31T00:40:40;95466.44;;;20.61;56.89
79577;BME280;69045;48.136;11.386;2023-07-31T00:43:08;95465.34;;;20.62;56.85
79577;BME280;69045;48.136;11.386;2023-07-31T00:45:37;95452.31;;;20.60;56.80
79577;BME280;69045;48.136;11.386;2023-07-31T00:48:06;95468.53;;;20.59;56.80
79577;BME280;69045;48.136;11.386;2023-07-31T00:50:36;95472.03;;;20.59;56.92
79577;BME280;69045;48.136;11.386;2023-07-31T00:53:05;95456.59;;;20.56;57.28
79577;BME280;69045;48.136;11.386;2023-07-31T00:55:33;95466.44;;;20.56;57.05
79577;BME280;69045;48.136;11.386;2023-07-31T00:58:02;95462.19;;;20.55;56.93
79577;BME280;69045;48.136;11.386;2023-07-31T01:00:30;95462.19;;;20.55;57.04
79577;BME280;69045;48.136;11.386;2023-07-31T01:02:58;95461.13;;;20.56;56.93
79577;BME280;69045;48.136;11.386;2023-07-31T01:05:39;95450.75;;;20.54;57.00
79577;BME280;69045;48.136;11.386;2023-07-31T01:08:18;95442.22;;;20.52;57.18
79577;BME280;69045;48.136;11.386;2023-07-31T01:10:51;95452.09;;;20.52;56.92
79577;BME280;69045;48.136;11.386;2023-07-31T01:13:23;95458.19;;;20.52;56.87
79577;BME280;69045;48.136;11.386;2023-07-31T01:15:51;95453.44;;;20.49;57.15
79577;BME280;69045;48.136;11.386;2023-07-31T01:18:20;95457.97;;;20.49;57.10
79577;BME280;69045;48.136;11.386;2023-07-31T01:20:57;95457.97;;;20.49;56.83
79577;BME280;69045;48.136;11.386;2023-07-31T01:23:56;95452.38;;;20.50;56.82
79577;BME280;69045;48.136;11.386;2023-07-31T01:26:34;95449.19;;;20.48;56.36
79577;BME280;69045;48.136;11.386;2023-07-31T01:29:12;95442.78;;;20.44;56.16
79577;BME280;69045;48.136;11.386;2023-07-31T01:31:47;95448.13;;;20.44;56.19
79577;BME280;69045;48.136;11.386;2023-07-31T01:34:17;95438.84;;;20.47;56.18
79577;BME280;69045;48.136;11.386;2023-07-31T01:36:46;95437.47;;;20.44;56.58
79577;BME280;69045;48.136;11.386;2023-07-31T01:39:14;95434.59;;;20.35;56.09
79577;BME280;69045;48.136;11.386;2023-07-31T01:41:44;95439.16;;;20.25;56.32
79577;BME280;69045;48.136;11.386;2023-07-31T01:44:12;95431.72;;;20.27;56.39
79577;BME280;69045;48.136;11.386;2023-07-31T01:46:40;95435.97;;;20.28;56.47
79577;BME280;69045;48.136;11.386;2023-07-31T01:49:09;95425.88;;;20.25;56.45
79577;BME280;69045;48.136;11.386;2023-07-31T01:51:37;95424.56;;;20.22;56.57
79577;BME280;69045;48.136;11.386;2023-07-31T01:54:07;95419.75;;;20.24;56.30
79577;BME280;69045;48.136;11.386;2023-07-31T01:56:35;95425.63;;;20.26;56.39
79577;BME280;69045;48.136;11.386;2023-07-31T01:59:05;95426.41;;;20.27;56.67
79577;BME280;69045;48.136;11.386;2023-07-31T02:01:33;95429.56;;;20.29;56.43
79577;BME280;69045;48.136;11.386;2023-07-31T02:04:01;95429.06;;;20.27;56.34
79577;BME280;69045;48.136;11.386;2023-07-31T02:06:31;95428.53;;;20.25;56.24
79577;BME280;69045;48.136;11.386;2023-07-31T02:08:59;95426.94;;;20.24;56.26
79577;BME280;69045;48.136;11.386;2023-07-31T02:11:27;95422.69;;;20.23;56.67
79577;BME280;69045;48.136;11.386;2023-07-31T02:13:55;95418.97;;;20.24;56.31
79577;BME280;69045;48.136;11.386;2023-07-31T02:16:25;95416.00;;;20.25;56.50
79577;BME280;69045;48.136;11.386;2023-07-31T02:18:53;95418.44;;;20.22;56.78
79577;BME280;69045;48.136;11.386;2023-07-31T02:21:21;95418.97;;;20.18;56.87
79577;BME280;69045;48.136;11.386;2023-07-31T02:23:49;95417.66;;;20.16;57.27
79577;BME280;69045;48.136;11.386;2023-07-31T02:26:18;95404.66;;;20.14;56.82
79577;BME280;69045;48.136;11.386;2023-07-31T02:28:46;95400.94;;;20.10;57.39
79577;BME280;69045;48.136;11.386;2023-07-31T02:31:14;95398.84;;;20.07;57.42
79577;BME280;69045;48.136;11.386;2023-07-31T02:33:46;95387.69;;;20.05;57.46
79577;BME280;69045;48.136;11.386;2023-07-31T02:36:14;95390.09;;;20.02;57.05
79577;BME280;69045;48.136;11.386;2023-07-31T02:38:42;95391.69;;;19.98;57.48
79577;BME280;69045;48.136;11.386;2023-07-31T02:41:10;95392.53;;;19.93;57.58
79577;BME280;69045;48.136;11.386;2023-07-31T02:43:38;95389.88;;;19.88;57.85
79577;BME280;69045;48.136;11.386;2023-07-31T02:46:06;95388.59;;;19.85;58.36
79577;BME280;69045;48.136;11.386;2023-07-31T02:48:34;95381.44;;;19.76;58.49
79577;BME280;69045;48.136;11.386;2023-07-31T02:51:04;95393.94;;;19.70;58.59
79577;BME280;69045;48.136;11.386;2023-07-31T02:53:32;95391.03;;;19.67;58.62
79577;BME280;69045;48.136;11.386;2023-07-31T02:56:00;95386.03;;;19.60;58.47
79577;BME280;69045;48.136;11.386;2023-07-31T02:58:28;95381.19;;;19.57;58.99
79577;BME280;69045;48.136;11.386;2023-07-31T03:00:58;95377.78;;;19.51;59.06
79577;BME280;69045;48.136;11.386;2023-07-31T03:03:26;95377.53;;;19.48;59.20
79577;BME280;69045;48.136;11.386;2023-07-31T03:05:54;95380.97;;;19.43;59.39
79577;BME280;69045;48.136;11.386;2023-07-31T03:08:25;95385.78;;;19.41;59.63
79577;BME280;69045;48.136;11.386;2023-07-31T03:10:53;95379.38;;;19.42;59.53
79577;BME280;69045;48.136;11.386;2023-07-31T03:13:23;95379.66;;;19.41;59.48
79577;BME280;69045;48.136;11.386;2023-07-31T03:15:51;95380.22;;;19.38;59.57
79577;BME280;69045;48.136;11.386;2023-07-31T03:18:19;95377.56;;;19.32;59.78
79577;BME280;69045;48.136;11.386;2023-07-31T03:20:47;95378.88;;;19.30;60.03
79577;BME280;69045;48.136;11.386;2023-07-31T03:23:16;95378.66;;;19.26;59.97
79577;BME280;69045;48.136;11.386;2023-07-31T03:25:56;95384.25;;;19.20;60.35
79577;BME280;69045;48.136;11.386;2023-07-31T03:28:28;95381.84;;;19.18;60.62
79577;BME280;69045;48.136;11.386;2023-07-31T03:30:56;95383.16;;;19.16;60.52
79577;BME280;69045;48.136;11.386;2023-07-31T03:33:24;95389.56;;;19.15;60.51
79577;BME280;69045;48.136;11.386;2023-07-31T03:35:53;95387.69;;;19.15;60.45
79577;BME280;69045;48.136;11.386;2023-07-31T03:38:21;95385.81;;;19.16;60.62
79577;BME280;69045;48.136;11.386;2023-07-31T03:40:49;95393.56;;;19.12;60.55
79577;BME280;69045;48.136;11.386;2023-07-31T03:43:19;95390.91;;;19.07;60.95
79577;BME280;69045;48.136;11.386;2023-07-31T03:45:46;95395.69;;;19.05;60.96
79577;BME280;69045;48.136;11.386;2023-07-31T03:48:15;95394.34;;;19.02;60.91
79577;BME280;69045;48.136;11.386;2023-07-31T03:50:43;95397.28;;;19.01;61.20
79577;BME280;69045;48.136;11.386;2023-07-31T03:53:11;95392.22;;;18.99;61.42
79577;BME280;69045;48.136;11.386;2023-07-31T03:55:39;95395.69;;;19.00;61.05
79577;BME280;69045;48.136;11.386;2023-07-31T03:58:07;95389.59;;;18.99;61.07
79577;BME280;69045;48.136;11.386;2023-07-31T04:00:37;95387.44;;;18.96;61.29
79577;BME280;69045;48.136;11.386;2023-07-31T04:03:05;95388.00;;;18.98;61.34
79577;BME280;69045;48.136;11.386;2023-07-31T04:05:33;95386.13;;;18.99;60.88
79577;BME280;69045;48.136;11.386;2023-07-31T04:08:01;95388.00;;;18.98;61.04
79577;BME280;69045;48.136;11.386;2023-07-31T04:10:29;95383.19;;;19.00;61.13
79577;BME280;69045;48.136;11.386;2023-07-31T04:13:00;95378.44;;;18.82;61.25
79577;BME280;69045;48.136;11.386;2023-07-31T04:15:28;95372.59;;;18.85;61.39
79577;BME280;69045;48.136;11.386;2023-07-31T04:18:00;95377.38;;;18.88;61.30
79577;BME280;69045;48.136;11.386;2023-07-31T04:20:28;95382.69;;;18.88;61.33
79577;BME280;69045;48.136;11.386;2023-07-31T04:22:56;95387.72;;;18.90;61.50
79577;BME280;69045;48.136;11.386;2023-07-31T04:25:24;95378.16;;;18.94;61.54
79577;BME280;69045;48.136;11.386;2023-07-31T04:27:52;95376.03;;;18.96;61.44
79577;BME280;69045;48.136;11.386;2023-07-31T04:30:21;95379.22;;;18.93;61.17
79577;BME280;69045;48.136;11.386;2023-07-31T04:32:49;95380.81;;;18.94;61.55
79577;BME280;69045;48.136;11.386;2023-07-31T04:35:19;95371.53;;;18.91;61.40
79577;BME280;69045;48.136;11.386;2023-07-31T04:37:47;95373.91;;;18.88;61.48
79577;BME280;69045;48.136;11.386;2023-07-31T04:40:15;95371.25;;;18.82;61.77
79577;BME280;69045;48.136;11.386;2023-07-31T04:42:44;95380.56;;;18.80;61.83
79577;BME280;69045;48.136;11.386;2023-07-31T04:45:13;95375.25;;;18.80;61.92
79577;BME280;69045;48.136;11.386;2023-07-31T04:47:42;95373.13;;;18.87;62.08
79577;BME280;69045;48.136;11.386;2023-07-31T04:50:10;95370.19;;;18.94;61.85
79577;BME280;69045;48.136;11.386;2023-07-31T04:52:39;95369.94;;;19.05;61.58
79577;BME280;69045;48.136;11.386;2023-07-31T04:55:08;95365.66;;;19.15;61.11
79577;BME280;69045;48.136;11.386;2023-07-31T04:57:36;95373.09;;;19.18;61.01
79577;BME280;69045;48.136;11.386;2023-07-31T05:00:06;95368.28;;;19.25;60.97
79577;BME280;69045;48.136;11.386;2023-07-31T05:02:34;95363.22;;;19.33;60.97
79577;BME280;69045;48.136;11.386;2023-07-31T05:05:02;95364.78;;;19.40;60.66
79577;BME280;69045;48.136;11.386;2023-07-31T05:07:31;95369.81;;;19.51;60.60
79577;BME280;69045;48.136;11.386;2023-07-31T05:10:01;95363.13;;;19.64;59.95
79577;BME280;69045;48.136;11.386;2023-07-31T05:12:29;95372.13;;;19.78;59.96
79577;BME280;69045;48.136;11.386;2023-07-31T05:14:57;95373.38;;;19.91;59.43
79577;BME280;69045;48.136;11.386;2023-07-31T05:17:25;95369.13;;;19.95;59.35
79577;BME280;69045;48.136;11.386;2023-07-31T05:19:53;95365.34;;;20.01;59.23
79577;BME280;69045;48.136;11.386;2023-07-31T05:22:21;95361.28;;;20.19;58.96
79577;BME280;69045;48.136;11.386;2023-07-31T05:24:49;95364.72;;;20.20;58.99
79577;BME280;69045;48.136;11.386;2023-07-31T05:27:19;95365.75;;;20.24;58.49
79577;BME280;69045;48.136;11.386;2023-07-31T05:29:47;95363.03;;;20.34;58.70
79577;BME280;69045;48.136;11.386;2023-07-31T05:32:15;95364.00;;;20.53;57.89
79577;BME280;69045;48.136;11.386;2023-07-31T05:34:43;95359.88;;;20.66;58.04
79577;BME280;69045;48.136;11.386;2023-07-31T05:37:11;95365.63;;;20.78;57.63
79577;BME280;69045;48.136;11.386;2023-07-31T05:39:39;95363.88;;;20.97;57.03
79577;BME280;69045;48.136;11.386;2023-07-31T05:42:07;95369.00;;;21.18;56.27
79577;BME280;69045;48.136;11.386;2023-07-31T05:44:37;95365.47;;;21.27;56.30
79577;BME280;69045;48.136;11.386;2023-07-31T05:47:05;95362.13;;;21.12;56.31
79577;BME280;69045;48.136;11.386;2023-07-31T05:49:33;95364.94;;;21.25;55.78
79577;BME280;69045;48.136;11.386;2023-07-31T05:52:02;95363.03;;;21.31;56.31
79577;BME280;69045;48.136;11.386;2023-07-31T05:54:31;95361.13;;;21.37;56.25
79577;BME280;69045;48.136;11.386;2023-07-31T05:56:59;95370.66;;;21.43;56.13
79577;BME280;69045;48.136;11.386;2023-07-31T05:59:27;95363.31;;;21.53;55.93
79577;BME280;69045;48.136;11.386;2023-07-31T06:01:57;95366.22;;;21.57;56.13
79577;BME280;69045;48.136;11.386;2023-07-31T06:04:26;95372.84;;;21.84;55.70
79577;BME280;69045;48.136;11.386;2023-07-31T06:06:54;95373.88;;;22.06;55.18
79577;BME280;69045;48.136;11.386;2023-07-31T06:09:22;95361.59;;;22.29;53.24
79577;BME280;69045;48.136;11.386;2023-07-31T06:11:50;95365.53;;;22.51;52.57
79577;BME280;69045;48.136;11.386;2023-07-31T06:14:18;95374.59;;;22.69;52.35
79577;BME280;69045;48.136;11.386;2023-07-31T06:16:46;95373.84;;;22.82;51.87
79577;BME280;69045;48.136;11.386;2023-07-31T06:19:16;95368.94;;;22.89;50.88
79577;BME280;69045;48.136;11.386;2023-07-31T06:21:44;95364.59;;;22.93;51.40
79577;BME280;69045;48.136;11.386;2023-07-31T06:24:12;95371.66;;;23.03;51.08
79577;BME280;69045;48.136;11.386;2023-07-31T06:26:45;95372.09;;;23.10;51.33
79577;BME280;69045;48.136;11.386;2023-07-31T06:29:13;95372.09;;;23.10;51.07
79577;BME280;69045;48.136;11.386;2023-07-31T06:31:41;95378.91;;;23.16;50.82
79577;BME280;69045;48.136;11.386;2023-07-31T06:34:10;95379.41;;;23.18;50.45
79577;BME280;69045;48.136;11.386;2023-07-31T06:36:39;95367.94;;;23.18;50.58
79577;BME280;69045;48.136;11.386;2023-07-31T06:39:08;95368.72;;;23.18;50.47
79577;BME280;69045;48.136;11.386;2023-07-31T06:41:38;95369.81;;;23.17;50.45
79577;BME280;69045;48.136;11.386;2023-07-31T06:44:09;95372.69;;;23.21;50.79
79577;BME280;69045;48.136;11.386;2023-07-31T06:46:37;95367.63;;;23.19;50.61
79577;BME280;69045;48.136;11.386;2023-07-31T06:49:06;95369.44;;;23.24;50.29
79577;BME280;69045;48.136;11.386;2023-07-31T06:51:34;95361.50;;;23.32;50.41
79577;BME280;69045;48.136;11.386;2023-07-31T06:54:04;95361.81;;;23.45;50.43
79577;BME280;69045;48.136;11.386;2023-07-31T06:56:33;95352.09;;;23.49;49.93
79577;BME280;69045;48.136;11.386;2023-07-31T06:59:03;95356.25;;;23.55;49.38
79577;BME280;69045;48.136;11.386;2023-07-31T07:01:31;95368.06;;;23.54;49.24
79577;BME280;69045;48.136;11.386;2023-07-31T07:03:59;95361.63;;;23.55;49.00
79577;BME280;69045;48.136;11.386;2023-07-31T07:06:27;95364.28;;;23.55;49.38
79577;BME280;69045;48.136;11.386;2023-07-31T07:08:55;95361.25;;;23.61;48.89
79577;BME280;69045;48.136;11.386;2023-07-31T07:11:25;95371.25;;;23.69;48.93
79577;BME280;69045;48.136;11.386;2023-07-31T07:13:53;95365.78;;;23.88;48.77
79577;BME280;69045;48.136;11.386;2023-07-31T07:16:22;95359.13;;;24.13;48.06
79577;BME280;69045;48.136;11.386;2023-07-31T07:18:50;95359.16;;;24.36;47.55
79577;BME280;69045;48.136;11.386;2023-07-31T07:21:30;95352.75;;;24.59;47.70
79577;BME280;69045;48.136;11.386;2023-07-31T07:23:58;95357.53;;;24.71;47.87
79577;BME280;69045;48.136;11.386;2023-07-31T07:26:28;95354.53;;;24.72;47.28
79577;BME280;69045;48.136;11.386;2023-07-31T07:28:56;95352.00;;;24.67;47.07
79577;BME280;69045;48.136;11.386;2023-07-31T07:31:27;95352.19;;;24.71;47.26
79577;BME280;69045;48.136;11.386;2023-07-31T07:33:55;95352.38;;;24.74;47.26
79577;BME280;69045;48.136;11.386;2023-07-31T07:36:24;95353.84;;;24.81;47.20
79577;BME280;69045;48.136;11.386;2023-07-31T07:38:52;95344.94;;;24.94;47.12
79577;BME280;69045;48.136;11.386;2023-07-31T07:41:20;95342.03;;;25.13;46.14
79577;BME280;69045;48.136;11.386;2023-07-31T07:43:50;95338.63;;;25.21;46.23
79577;BME280;69045;48.136;11.386;2023-07-31T07:46:18;95329.06;;;25.37;44.48
79577;BME280;69045;48.136;11.386;2023-07-31T07:48:47;95324.50;;;25.46;45.04
79577;BME280;69045;48.136;11.386;2023-07-31T07:51:15;95315.59;;;25.68;44.51
79577;BME280;69045;48.136;11.386;2023-07-31T07:53:43;95315.19;;;25.92;43.74
79577;BME280;69045;48.136;11.386;2023-07-31T07:56:11;95317.72;;;26.14;43.78
79577;BME280;69045;48.136;11.386;2023-07-31T07:58:39;95318.88;;;26.39;43.21
79577;BME280;69045;48.136;11.386;2023-07-31T08:01:09;95326.28;;;26.68;42.54
79577;BME280;69045;48.136;11.386;2023-07-31T08:03:37;95322.63;;;26.82;42.00
79577;BME280;69045;48.136;11.386;2023-07-31T08:06:05;95323.88;;;26.84;41.35
79577;BME280;69045;48.136;11.386;2023-07-31T08:08:36;95328.16;;;26.85;40.12
79577;BME280;69045;48.136;11.386;2023-07-31T08:11:05;95325.16;;;26.78;40.59
79577;BME280;69045;48.136;11.386;2023-07-31T08:13:33;95323.72;;;26.81;40.70
79577;BME280;69045;48.136;11.386;2023-07-31T08:16:03;95329.25;;;26.93;40.72
79577;BME280;69045;48.136;11.386;2023-07-31T08:18:33;95334.91;;;27.17;39.59
79577;BME280;69045;48.136;11.386;2023-07-31T08:21:02;95330.78;;;27.20;39.75
79577;BME280;69045;48.136;11.386;2023-07-31T08:23:30;95334.28;;;27.12;41.07
79577;BME280;69045;48.136;11.386;2023-07-31T08:25:58;95334.13;;;27.17;40.55
79577;BME280;69045;48.136;11.386;2023-07-31T08:28:26;95333.34;;;26.99;39.95
79577;BME280;69045;48.136;11.386;2023-07-31T08:30:54;95339.41;;;26.70;40.71
79577;BME280;69045;48.136;11.386;2023-07-31T08:33:23;95331.03;;;26.54;40.50
79577;BME280;69045;48.136;11.386;2023-07-31T08:35:52;95319.50;;;26.36;40.00
79577;BME280;69045;48.136;11.386;2023-07-31T08:38:20;95319.16;;;26.21;41.37
79577;BME280;69045;48.136;11.386;2023-07-31T08:40:52;95318.69;;;26.10;41.11
79577;BME280;69045;48.136;11.386;2023-07-31T08:43:23;95318.84;;;26.13;41.27
79577;BME280;69045;48.136;11.386;2023-07-31T08:45:53;95311.25;;;26.07;42.47
79577;BME280;69045;48.136;11.386;2023-07-31T08:48:23;95311.91;;;25.95;41.85
79577;BME280;69045;48.136;11.386;2023-07-31T08:50:52;95318.66;;;25.84;42.15
79577;BME280;69045;48.136;11.386;2023-07-31T08:53:22;95320.09;;;25.81;42.24
79577;BME280;69045;48.136;11.386;2023-07-31T08:55:52;95321.19;;;25.89;41.42
79577;BME280;69045;48.136;11.386;2023-07-31T08:58:21;95316.47;;;25.95;41.58
79577;BME280;69045;48.136;11.386;2023-07-31T09:00:53;95322.16;;;26.02;42.18
79577;BME280;69045;48.136;11.386;2023-07-31T09:03:24;95323.91;;;26.24;40.95
79577;BME280;69045;48.136;11.386;2023-07-31T09:05:56;95323.78;;;26.46;40.79
79577;BME280;69045;48.136;11.386;2023-07-31T09:08:31;95321.84;;;26.73;40.60
79577;BME280;69045;48.136;11.386;2023-07-31T09:11:00;95320.88;;;26.86;39.76
79577;BME280;69045;48.136;11.386;2023-07-31T09:13:30;95314.53;;;26.82;39.47
79577;BME280;69045;48.136;11.386;2023-07-31T09:15:59;95303.63;;;26.87;39.59
79577;BME280;69045;48.136;11.386;2023-07-31T09:18:27;95295.09;;;26.85;39.75
79577;BME280;69045;48.136;11.386;2023-07-31T09:21:04;95297.13;;;26.88;39.33
79577;BME280;69045;48.136;11.386;2023-07-31T09:23:43;95287.47;;;27.04;39.40
79577;BME280;69045;48.136;11.386;2023-07-31T09:26:11;95292.31;;;27.19;38.87
79577;BME280;69045;48.136;11.386;2023-07-31T09:28:55;95301.81;;;27.26;38.68
79577;BME280;69045;48.136;11.386;2023-07-31T09:31:33;95295.13;;;27.32;38.77
79577;BME280;69045;48.136;11.386;2023-07-31T09:34:01;95301.34;;;27.53;38.61
79577;BME280;69045;48.136;11.386;2023-07-31T09:36:31;95291.59;;;27.78;38.79
79577;BME280;69045;48.136;11.386;2023-07-31T09:39:02;95291.34;;;27.92;37.81
79577;BME280;69045;48.136;11.386;2023-07-31T09:41:30;95296.31;;;27.81;38.50
79577;BME280;69045;48.136;11.386;2023-07-31T09:43:59;95276.03;;;28.05;37.96
79577;BME280;69045;48.136;11.386;2023-07-31T09:46:27;95279.25;;;28.19;37.78
79577;BME280;69045;48.136;11.386;2023-07-31T09:49:04;95272.84;;;28.32;38.07
79577;BME280;69045;48.136;11.386;2023-07-31T09:51:34;95275.78;;;28.39;38.67
79577;BME280;69045;48.136;11.386;2023-07-31T09:54:12;95280.94;;;28.02;38.75
79577;BME280;69045;48.136;11.386;2023-07-31T09:56:43;95269.53;;;28.26;37.89
79577;BME280;69045;48.136;11.386;2023-07-31T09:59:13;95268.78;;;28.71;37.47
79577;BME280;69045;48.136;11.386;2023-07-31T10:01:43;95262.03;;;28.11;37.58
79577;BME280;69045;48.136;11.386;2023-07-31T10:04:13;95265.91;;;28.22;37.64
79577;BME280;69045;48.136;11.386;2023-07-31T10:06:44;95240.31;;;28.49;36.84
79577;BME280;69045;48.136;11.386;2023-07-31T10:09:18;95224.22;;;28.74;36.87
79577;BME280;69045;48.136;11.386;2023-07-31T10:11:50;95239.56;;;28.61;36.75
79577;BME280;69045;48.136;11.386;2023-07-31T10:14:23;95230.78;;;28.52;36.75
79577;BME280;69045;48.136;11.386;2023-07-31T10:16:52;95231.03;;;28.71;36.31
79577;BME280;69045;48.136;11.386;2023-07-31T10:19:22;95233.41;;;28.85;36.32
79577;BME280;69045;48.136;11.386;2023-07-31T10:21:52;95226.63;;;29.36;35.87
79577;BME280;69045;48.136;11.386;2023-07-31T10:24:21;95224.44;;;29.79;34.83
79577;BME280;69045;48.136;11.386;2023-07-31T10:26:52;95223.47;;;29.71;34.90
79577;BME280;69045;48.136;11.386;2023-07-31T10:29:22;95222.66;;;29.71;34.70
79577;BME280;69045;48.136;11.386;2023-07-31T10:31:52;95222.13;;;29.53;34.26
79577;BME280;69045;48.136;11.386;2023-07-31T10:34:21;95217.09;;;29.27;35.25
79577;BME280;69045;48.136;11.386;2023-07-31T10:36:49;95211.97;;;28.89;35.74
79577;BME280;69045;48.136;11.386;2023-07-31T10:39:36;95229.19;;;28.39;35.62
79577;BME280;69045;48.136;11.386;2023-07-31T10:42:10;95226.78;;;28.37;35.95
79577;BME280;69045;48.136;11.386;2023-07-31T10:44:43;95219.31;;;28.55;35.88
79577;BME280;69045;48.136;11.386;2023-07-31T10:47:14;95236.72;;;28.45;36.17
79577;BME280;69045;48.136;11.386;2023-07-31T10:49:45;95227.56;;;28.38;35.47
79577;BME280;69045;48.136;11.386;2023-07-31T10:52:19;95226.84;;;28.28;36.52
79577;BME280;69045;48.136;11.386;2023-07-31T10:57:58;95192.13;;;28.48;36.62
79577;BME280;69045;48.136;11.386;2023-07-31T11:00:32;95208.72;;;28.38;36.90
79577;BME280;69045;48.136;11.386;2023-07-31T11:03:03;95203.22;;;28.34;36.25
79577;BME280;69045;48.136;11.386;2023-07-31T11:05:42;95198.09;;;28.53;36.05
79577;BME280;69045;48.136;11.386;2023-07-31T11:08:15;95196.94;;;28.42;35.96
79577;BME280;69045;48.136;11.386;2023-07-31T11:10:45;95192.81;;;28.57;35.80
79577;BME280;69045;48.136;11.386;2023-07-31T11:13:15;95192.25;;;28.64;36.07
79577;BME280;69045;48.136;11.386;2023-07-31T11:15:43;95192.19;;;28.84;35.17
79577;BME280;69045;48.136;11.386;2023-07-31T11:18:11;95190.25;;;28.85;34.78
79577;BME280;69045;48.136;11.386;2023-07-31T11:20:39;95184.69;;;29.15;34.49
79577;BME280;69045;48.136;11.386;2023-07-31T11:23:09;95180.28;;;29.34;34.36
79577;BME280;69045;48.136;11.386;2023-07-31T11:25:40;95183.75;;;29.59;33.90
79577;BME280;69045;48.136;11.386;2023-07-31T11:28:10;95169.56;;;29.75;33.54
79577;BME280;69045;48.136;11.386;2023-07-31T11:30:41;95167.97;;;29.74;34.32
79577;BME280;69045;48.136;11.386;2023-07-31T11:33:11;95165.78;;;29.51;34.84
79577;BME280;69045;48.136;11.386;2023-07-31T11:35:43;95162.41;;;29.18;34.85
79577;BME280;69045;48.136;11.386;2023-07-31T11:38:16;95151.47;;;29.38;34.09
79577;BME280;69045;48.136;11.386;2023-07-31T11:40:49;95158.56;;;29.55;34.08
79577;BME280;69045;48.136;11.386;2023-07-31T11:43:18;95150.56;;;29.59;33.92
79577;BME280;69045;48.136;11.386;2023-07-31T11:45:49;95146.69;;;29.72;33.88
79577;BME280;69045;48.136;11.386;2023-07-31T11:48:22;95141.97;;;29.81;33.50
79577;BME280;69045;48.136;11.386;2023-07-31T11:50:51;95133.50;;;29.83;33.68
79577;BME280;69045;48.136;11.386;2023-07-31T11:53:26;95133.53;;;29.71;33.63
79577;BME280;69045;48.136;11.386;2023-07-31T11:55:58;95127.59;;;29.65;34.14
79577;BME280;69045;48.136;11.386;2023-07-31T11:58:28;95120.16;;;29.74;33.76
79577;BME280;69045;48.136;11.386;2023-07-31T12:00:59;95115.97;;;29.77;33.59
79577;BME280;69045;48.136;11.386;2023-07-31T12:03:31;95122.09;;;29.89;32.68
79577;BME280;69045;48.136;11.386;2023-07-31T12:06:00;95121.06;;;29.94;33.18
79577;BME280;69045;48.136;11.386;2023-07-31T12:08:28;95109.44;;;29.78;33.13
79577;BME280;69045;48.136;11.386;2023-07-31T12:11:02;95108.41;;;29.54;33.28
79577;BME280;69045;48.136;11.386;2023-07-31T12:13:32;95107.72;;;29.45;33.87
79577;BME280;69045;48.136;11.386;2023-07-31T12:16:04;95100.66;;;29.41;33.47
79577;BME280;69045;48.136;11.386;2023-07-31T12:18:35;95102.59;;;29.28;33.95
79577;BME280;69045;48.136;11.386;2023-07-31T12:21:05;95087.31;;;29.20;34.19
79577;BME280;69045;48.136;11.386;2023-07-31T12:23:35;95089.56;;;29.05;34.61
79577;BME280;69045;48.136;11.386;2023-07-31T12:26:06;95084.75;;;28.74;34.36
79577;BME280;69045;48.136;11.386;2023-07-31T12:28:36;95080.72;;;28.56;35.17
79577;BME280;69045;48.136;11.386;2023-07-31T12:31:10;95082.53;;;28.52;36.23
79577;BME280;69045;48.136;11.386;2023-07-31T12:33:39;95075.88;;;28.49;35.76
79577;BME280;69045;48.136;11.386;2023-07-31T12:36:09;95072.38;;;28.37;36.37
79577;BME280;69045;48.136;11.386;2023-07-31T12:38:38;95067.22;;;28.56;35.85
79577;BME280;69045;48.136;11.386;2023-07-31T12:41:06;95068.13;;;28.72;35.82
79577;BME280;69045;48.136;11.386;2023-07-31T12:43:35;95054.53;;;28.93;35.77
79577;BME280;69045;48.136;11.386;2023-07-31T12:46:04;95063.28;;;29.02;35.40
79577;BME280;69045;48.136;11.386;2023-07-31T12:48:34;95070.50;;;29.38;35.14
79577;BME280;69045;48.136;11.386;2023-07-31T12:51:02;95051.97;;;29.65;33.93
79577;BME280;69045;48.136;11.386;2023-07-31T12:53:30;95043.72;;;29.74;34.40
79577;BME280;69045;48.136;11.386;2023-07-31T12:55:59;95058.75;;;29.59;35.69
79577;BME280;69045;48.136;11.386;2023-07-31T12:58:27;95052.69;;;29.78;33.91
79577;BME280;69045;48.136;11.386;2023-07-31T13:00:55;95049.63;;;29.63;33.12
79577;BME280;69045;48.136;11.386;2023-07-31T13:03:23;95042.50;;;29.87;33.39
79577;BME280;69045;48.136;11.386;2023-07-31T13:05:53;95036.78;;;30.04;32.61